Huvudsida
METAR-TAF:

METAR-TAF

Flygplatser :

Najran, Saudiarabien

latitud: 17-37N, longitud: 044-25E, höjd: 1212 m

Aktuellt väderrapport

Denna rapport gjordes för 57 minuter sedan, klockan 18:00 UTC
Vind 5 kt från ost/nordost
Temperatur 22°C
Fuktighet 23%
Tryck 1020 hPa
Sikt: 4500 m
utbrett stoft

METAR: OENG 281800Z 06005KT 4500 DU NSC 22/00 Q1020 NOSIG

Tid: 21:57 (18:57 UTC)

Väderprognos

Prognos gäller från 28 kl. 12 UTC till 29 kl. 18 UTC
Vind 12 kt från ost
Sikt: 6000 m
utbrett stoft
Temporärt
från 28 kl. 12 UTC till 28 kl. 18 UTC
Sikt: 3000 m
utbrett stoft
Blir
från 28 kl. 19 UTC till 28 kl. 21 UTC
Vind 3 kt varierande vindriktning

TAF: OENG 2812/2918 09012KT 6000 DU NSC TEMPO 2812/2818 3000 DU BECMG 2819/2821 VRB03KT

Aktuella väderrapporter och prognoser från 4000 flygplatser (METAR- och TAF-rapporter).

De tillgängliga stationerna syns som gula och röda prickar på kartan.

För musen över prickarna för att se namnen på stationerna.

Klicka sedan för att få väderrapporter och prognoser.

För att ändra kartan: Klicka på de gröna knapparna med ett svart kors på för att zooma in; den gröna knappen med ett streck på för att zooma ut; eller på de gröna pilarna för angränsande kartor.


METAR-TAF: